sensor_id;sensor_type;location;lat;lon;timestamp;pressure;altitude;pressure_sealevel;temperature;humidity
70730;BME280;58315;53.336;55.932;2023-05-07T00:02:17;99590.22;;;16.20;29.30
70730;BME280;58315;53.336;55.932;2023-05-07T00:04:43;99589.84;;;16.23;29.46
70730;BME280;58315;53.336;55.932;2023-05-07T00:07:09;99599.53;;;16.24;29.43
70730;BME280;58315;53.336;55.932;2023-05-07T00:09:36;99596.25;;;16.14;29.80
70730;BME280;58315;53.336;55.932;2023-05-07T00:12:02;99598.66;;;15.93;30.28
70730;BME280;58315;53.336;55.932;2023-05-07T00:14:28;99604.38;;;15.81;30.37
70730;BME280;58315;53.336;55.932;2023-05-07T00:16:55;99607.41;;;15.46;30.70
70730;BME280;58315;53.336;55.932;2023-05-07T00:19:21;99604.44;;;15.24;31.14
70730;BME280;58315;53.336;55.932;2023-05-07T00:21:47;99603.16;;;14.95;31.82
70730;BME280;58315;53.336;55.932;2023-05-07T00:24:13;99591.34;;;14.82;32.23
70730;BME280;58315;53.336;55.932;2023-05-07T00:26:39;99596.81;;;14.88;32.45
70730;BME280;58315;53.336;55.932;2023-05-07T00:29:05;99597.47;;;14.99;32.31
70730;BME280;58315;53.336;55.932;2023-05-07T00:31:32;99603.16;;;14.95;33.03
70730;BME280;58315;53.336;55.932;2023-05-07T00:33:58;99596.31;;;14.85;33.61
70730;BME280;58315;53.336;55.932;2023-05-07T00:36:24;99601.47;;;14.94;33.84
70730;BME280;58315;53.336;55.932;2023-05-07T00:38:53;99603.47;;;14.92;34.45
70730;BME280;58315;53.336;55.932;2023-05-07T00:41:20;99605.13;;;14.93;34.67
70730;BME280;58315;53.336;55.932;2023-05-07T00:43:47;99606.28;;;14.91;35.39
70730;BME280;58315;53.336;55.932;2023-05-07T00:46:13;99607.09;;;14.91;35.85
70730;BME280;58315;53.336;55.932;2023-05-07T00:48:41;99615.09;;;14.83;36.38
70730;BME280;58315;53.336;55.932;2023-05-07T00:51:09;99611.94;;;14.88;36.41
70730;BME280;58315;53.336;55.932;2023-05-07T00:53:37;99611.28;;;14.86;37.29
70730;BME280;58315;53.336;55.932;2023-05-07T00:56:04;99601.47;;;14.86;37.33
70730;BME280;58315;53.336;55.932;2023-05-07T00:58:33;99622.75;;;14.94;37.76
70730;BME280;58315;53.336;55.932;2023-05-07T01:00:59;99623.06;;;14.91;38.06
70730;BME280;58315;53.336;55.932;2023-05-07T01:03:25;99626.91;;;15.13;38.21
70730;BME280;58315;53.336;55.932;2023-05-07T01:05:53;99632.38;;;15.28;38.04
70730;BME280;58315;53.336;55.932;2023-05-07T01:08:20;99629.06;;;15.34;38.07
70730;BME280;58315;53.336;55.932;2023-05-07T01:10:48;99625.38;;;15.35;38.46
70730;BME280;58315;53.336;55.932;2023-05-07T01:13:14;99628.56;;;15.31;38.97
70730;BME280;58315;53.336;55.932;2023-05-07T01:15:42;99626.09;;;15.29;39.41
70730;BME280;58315;53.336;55.932;2023-05-07T01:18:09;99617.75;;;15.32;39.37
70730;BME280;58315;53.336;55.932;2023-05-07T01:20:35;99614.59;;;15.37;40.14
70730;BME280;58315;53.336;55.932;2023-05-07T01:23:03;99606.94;;;15.34;40.74
70730;BME280;58315;53.336;55.932;2023-05-07T01:25:29;99608.78;;;15.33;41.75
70730;BME280;58315;53.336;55.932;2023-05-07T01:27:59;99600.44;;;15.28;41.74
70730;BME280;58315;53.336;55.932;2023-05-07T01:30:30;99592.47;;;15.36;42.94
70730;BME280;58315;53.336;55.932;2023-05-07T01:33:03;99609.06;;;15.47;42.80
70730;BME280;58315;53.336;55.932;2023-05-07T01:35:35;99633.03;;;15.63;42.50
70730;BME280;58315;53.336;55.932;2023-05-07T01:38:03;99647.53;;;15.69;42.54
70730;BME280;58315;53.336;55.932;2023-05-07T01:40:30;99644.16;;;15.75;42.40
70730;BME280;58315;53.336;55.932;2023-05-07T01:42:56;99641.31;;;15.84;42.01
70730;BME280;58315;53.336;55.932;2023-05-07T01:45:23;99628.47;;;15.96;42.14
70730;BME280;58315;53.336;55.932;2023-05-07T01:47:49;99629.47;;;15.95;43.11
70730;BME280;58315;53.336;55.932;2023-05-07T01:50:17;99622.97;;;15.89;43.08
70730;BME280;58315;53.336;55.932;2023-05-07T01:52:44;99624.53;;;15.67;43.62
70730;BME280;58315;53.336;55.932;2023-05-07T01:55:10;99630.22;;;15.73;43.49
70730;BME280;58315;53.336;55.932;2023-05-07T01:57:36;99637.72;;;15.69;43.66
70730;BME280;58315;53.336;55.932;2023-05-07T02:00:03;99641.34;;;15.68;43.23
70730;BME280;58315;53.336;55.932;2023-05-07T02:02:42;99642.69;;;15.56;43.90
70730;BME280;58315;53.336;55.932;2023-05-07T02:05:17;99625.38;;;15.35;44.03
70730;BME280;58315;53.336;55.932;2023-05-07T02:07:47;99619.41;;;15.41;44.21
70730;BME280;58315;53.336;55.932;2023-05-07T02:10:15;99603.75;;;15.38;44.36
70730;BME280;58315;53.336;55.932;2023-05-07T02:12:41;99606.41;;;15.55;44.14
70730;BME280;58315;53.336;55.932;2023-05-07T02:15:08;99602.72;;;15.64;43.93
70730;BME280;58315;53.336;55.932;2023-05-07T02:17:39;99602.75;;;15.56;44.14
70730;BME280;58315;53.336;55.932;2023-05-07T02:20:21;99613.44;;;15.23;45.12
70730;BME280;58315;53.336;55.932;2023-05-07T02:23:07;99620.88;;;15.52;44.44
70730;BME280;58315;53.336;55.932;2023-05-07T02:25:34;99634.19;;;15.60;44.48
70730;BME280;58315;53.336;55.932;2023-05-07T02:28:00;99641.19;;;15.61;44.11
70730;BME280;58315;53.336;55.932;2023-05-07T02:30:44;99648.66;;;15.50;44.54
70730;BME280;58315;53.336;55.932;2023-05-07T02:33:11;99650.00;;;15.54;44.58
70730;BME280;58315;53.336;55.932;2023-05-07T02:35:39;99644.66;;;15.54;44.49
70730;BME280;58315;53.336;55.932;2023-05-07T02:38:06;99641.69;;;15.49;44.60
70730;BME280;58315;53.336;55.932;2023-05-07T02:40:37;99626.53;;;15.74;44.23
70730;BME280;58315;53.336;55.932;2023-05-07T02:43:06;99617.88;;;15.80;43.91
70730;BME280;58315;53.336;55.932;2023-05-07T02:45:33;99628.31;;;15.89;44.04
70730;BME280;58315;53.336;55.932;2023-05-07T02:48:00;99633.31;;;15.93;43.99
70730;BME280;58315;53.336;55.932;2023-05-07T02:50:27;99633.94;;;16.03;43.97
70730;BME280;58315;53.336;55.932;2023-05-07T02:52:54;99637.13;;;15.90;44.50
70730;BME280;58315;53.336;55.932;2023-05-07T02:55:20;99632.28;;;16.02;44.21
70730;BME280;58315;53.336;55.932;2023-05-07T02:57:46;99620.28;;;15.98;44.31
70730;BME280;58315;53.336;55.932;2023-05-07T03:00:17;99632.13;;;15.95;44.55
70730;BME280;58315;53.336;55.932;2023-05-07T03:03:03;99637.13;;;15.90;44.71
70730;BME280;58315;53.336;55.932;2023-05-07T03:05:29;99636.75;;;16.01;44.80
70730;BME280;58315;53.336;55.932;2023-05-07T03:07:55;99628.53;;;16.19;44.51
70730;BME280;58315;53.336;55.932;2023-05-07T03:10:21;99623.97;;;16.59;44.19
70730;BME280;58315;53.336;55.932;2023-05-07T03:12:47;99611.16;;;17.61;42.59
70730;BME280;58315;53.336;55.932;2023-05-07T03:15:16;99602.22;;;18.49;40.69
70730;BME280;58315;53.336;55.932;2023-05-07T03:17:42;99602.31;;;19.42;39.43
70730;BME280;58315;53.336;55.932;2023-05-07T03:20:09;99600.31;;;20.27;37.75
70730;BME280;58315;53.336;55.932;2023-05-07T03:22:36;99607.13;;;21.04;36.69
70730;BME280;58315;53.336;55.932;2023-05-07T03:25:02;99613.59;;;22.21;35.54
70730;BME280;58315;53.336;55.932;2023-05-07T03:27:35;99612.03;;;23.15;33.85
70730;BME280;58315;53.336;55.932;2023-05-07T03:30:02;99604.72;;;23.65;32.11
70730;BME280;58315;53.336;55.932;2023-05-07T03:32:31;99614.41;;;23.91;31.98
70730;BME280;58315;53.336;55.932;2023-05-07T03:34:57;99624.28;;;24.52;31.88
70730;BME280;58315;53.336;55.932;2023-05-07T03:37:23;99637.16;;;24.99;31.01
70730;BME280;58315;53.336;55.932;2023-05-07T03:39:50;99629.81;;;26.12;30.17
70730;BME280;58315;53.336;55.932;2023-05-07T03:42:17;99631.63;;;26.47;29.22
70730;BME280;58315;53.336;55.932;2023-05-07T03:44:43;99639.34;;;26.83;28.70
70730;BME280;58315;53.336;55.932;2023-05-07T03:47:09;99651.19;;;27.39;28.13
70730;BME280;58315;53.336;55.932;2023-05-07T03:49:36;99658.19;;;26.90;28.59
70730;BME280;58315;53.336;55.932;2023-05-07T03:52:03;99646.56;;;27.06;28.00
70730;BME280;58315;53.336;55.932;2023-05-07T03:54:30;99654.38;;;26.74;28.03
70730;BME280;58315;53.336;55.932;2023-05-07T03:56:57;99655.72;;;26.88;28.48
70730;BME280;58315;53.336;55.932;2023-05-07T03:59:23;99649.34;;;27.79;27.74
70730;BME280;58315;53.336;55.932;2023-05-07T04:01:49;99644.19;;;27.77;26.77
70730;BME280;58315;53.336;55.932;2023-05-07T04:04:18;99647.72;;;27.78;26.84
70730;BME280;58315;53.336;55.932;2023-05-07T04:06:44;99664.00;;;27.95;27.04
70730;BME280;58315;53.336;55.932;2023-05-07T04:09:10;99659.09;;;27.58;27.36
70730;BME280;58315;53.336;55.932;2023-05-07T04:11:38;99660.31;;;27.84;27.25
70730;BME280;58315;53.336;55.932;2023-05-07T04:14:07;99661.88;;;28.41;26.87
70730;BME280;58315;53.336;55.932;2023-05-07T04:16:34;99664.00;;;29.10;26.38
70730;BME280;58315;53.336;55.932;2023-05-07T04:19:01;99675.06;;;29.30;25.66
70730;BME280;58315;53.336;55.932;2023-05-07T04:21:28;99663.50;;;29.50;25.39
70730;BME280;58315;53.336;55.932;2023-05-07T04:23:55;99657.81;;;29.89;25.20
70730;BME280;58315;53.336;55.932;2023-05-07T04:26:21;99654.50;;;30.34;25.21
70730;BME280;58315;53.336;55.932;2023-05-07T04:28:47;99666.78;;;30.32;24.57
70730;BME280;58315;53.336;55.932;2023-05-07T04:31:15;99673.09;;;30.47;24.53
70730;BME280;58315;53.336;55.932;2023-05-07T04:33:41;99675.13;;;30.78;24.60
70730;BME280;58315;53.336;55.932;2023-05-07T04:36:10;99677.88;;;30.83;24.06
70730;BME280;58315;53.336;55.932;2023-05-07T04:38:44;99682.50;;;30.77;23.90
70730;BME280;58315;53.336;55.932;2023-05-07T04:41:12;99685.81;;;30.26;24.21
70730;BME280;58315;53.336;55.932;2023-05-07T04:43:42;99707.25;;;30.13;25.05
70730;BME280;58315;53.336;55.932;2023-05-07T04:46:10;99719.34;;;29.85;24.75
70730;BME280;58315;53.336;55.932;2023-05-07T04:48:37;99725.19;;;28.85;25.64
70730;BME280;58315;53.336;55.932;2023-05-07T04:51:04;99728.16;;;27.50;26.81
70730;BME280;58315;53.336;55.932;2023-05-07T04:53:31;99752.00;;;25.80;29.12
70730;BME280;58315;53.336;55.932;2023-05-07T04:55:57;99747.84;;;24.94;30.06
70730;BME280;58315;53.336;55.932;2023-05-07T04:58:27;99753.19;;;24.45;30.80
70730;BME280;58315;53.336;55.932;2023-05-07T05:00:53;99762.16;;;24.21;30.71
70730;BME280;58315;53.336;55.932;2023-05-07T05:03:19;99770.69;;;22.91;32.02
70730;BME280;58315;53.336;55.932;2023-05-07T05:05:45;99777.31;;;22.04;33.03
70730;BME280;58315;53.336;55.932;2023-05-07T05:08:11;99790.13;;;21.55;34.25
70730;BME280;58315;53.336;55.932;2023-05-07T05:10:41;99793.63;;;21.42;34.17
70730;BME280;58315;53.336;55.932;2023-05-07T05:13:08;99801.19;;;21.19;34.34
70730;BME280;58315;53.336;55.932;2023-05-07T05:15:35;99803.53;;;21.42;34.35
70730;BME280;58315;53.336;55.932;2023-05-07T05:18:02;99808.16;;;21.61;33.40
70730;BME280;58315;53.336;55.932;2023-05-07T05:20:29;99815.03;;;21.23;33.75
70730;BME280;58315;53.336;55.932;2023-05-07T05:22:55;99819.53;;;20.61;34.90
70730;BME280;58315;53.336;55.932;2023-05-07T05:25:22;99824.97;;;20.46;34.94
70730;BME280;58315;53.336;55.932;2023-05-07T05:27:48;99824.91;;;19.83;36.14
70730;BME280;58315;53.336;55.932;2023-05-07T05:30:14;99819.94;;;20.36;35.39
70730;BME280;58315;53.336;55.932;2023-05-07T05:32:43;99831.19;;;20.18;35.66
70730;BME280;58315;53.336;55.932;2023-05-07T05:35:09;99807.22;;;19.89;36.11
70730;BME280;58315;53.336;55.932;2023-05-07T05:37:35;99824.09;;;19.83;36.04
70730;BME280;58315;53.336;55.932;2023-05-07T05:40:04;99817.22;;;19.59;36.33
70730;BME280;58315;53.336;55.932;2023-05-07T05:42:32;99828.41;;;19.26;36.78
70730;BME280;58315;53.336;55.932;2023-05-07T05:44:58;99844.53;;;18.96;37.44
70730;BME280;58315;53.336;55.932;2023-05-07T05:47:24;99856.63;;;19.07;37.42
70730;BME280;58315;53.336;55.932;2023-05-07T05:49:53;99849.06;;;18.81;37.71
70730;BME280;58315;53.336;55.932;2023-05-07T05:52:20;99853.91;;;18.33;38.34
70730;BME280;58315;53.336;55.932;2023-05-07T05:54:49;99850.16;;;18.04;39.21
70730;BME280;58315;53.336;55.932;2023-05-07T05:57:16;99863.34;;;18.44;38.54
70730;BME280;58315;53.336;55.932;2023-05-07T05:59:44;99862.59;;;18.65;38.45
70730;BME280;58315;53.336;55.932;2023-05-07T06:02:10;99863.38;;;18.73;38.07
70730;BME280;58315;53.336;55.932;2023-05-07T06:04:37;99872.78;;;18.99;37.56
70730;BME280;58315;53.336;55.932;2023-05-07T06:07:04;99877.69;;;19.10;37.45
70730;BME280;58315;53.336;55.932;2023-05-07T06:09:30;99874.81;;;18.82;38.11
70730;BME280;58315;53.336;55.932;2023-05-07T06:11:56;99882.13;;;18.73;38.12
70730;BME280;58315;53.336;55.932;2023-05-07T06:14:22;99875.47;;;18.99;37.65
70730;BME280;58315;53.336;55.932;2023-05-07T06:16:49;99887.69;;;18.87;37.94
70730;BME280;58315;53.336;55.932;2023-05-07T06:19:15;99884.69;;;19.11;37.35
70730;BME280;58315;53.336;55.932;2023-05-07T06:21:44;99894.94;;;18.93;37.47
70730;BME280;58315;53.336;55.932;2023-05-07T06:24:10;99889.19;;;18.66;37.83
70730;BME280;58315;53.336;55.932;2023-05-07T06:26:38;99909.09;;;18.49;38.17
70730;BME280;58315;53.336;55.932;2023-05-07T06:29:04;99907.47;;;18.63;38.19
70730;BME280;58315;53.336;55.932;2023-05-07T06:31:30;99908.50;;;18.39;38.47
70730;BME280;58315;53.336;55.932;2023-05-07T06:34:03;99913.22;;;18.37;38.45
70730;BME280;58315;53.336;55.932;2023-05-07T06:36:37;99923.56;;;18.17;38.80
70730;BME280;58315;53.336;55.932;2023-05-07T06:39:12;99925.72;;;18.21;38.63
70730;BME280;58315;53.336;55.932;2023-05-07T06:41:41;99927.00;;;18.11;38.71
70730;BME280;58315;53.336;55.932;2023-05-07T06:44:16;99920.44;;;18.13;38.74
70730;BME280;58315;53.336;55.932;2023-05-07T06:46:58;99937.69;;;18.11;38.90
70730;BME280;58315;53.336;55.932;2023-05-07T06:49:25;99952.59;;;17.74;39.27
70730;BME280;58315;53.336;55.932;2023-05-07T06:51:51;99958.25;;;17.79;38.94
70730;BME280;58315;53.336;55.932;2023-05-07T06:54:18;99958.34;;;17.94;38.62
70730;BME280;58315;53.336;55.932;2023-05-07T06:56:44;99956.19;;;17.89;38.64
70730;BME280;58315;53.336;55.932;2023-05-07T06:59:10;99956.09;;;17.74;38.85
70730;BME280;58315;53.336;55.932;2023-05-07T07:01:39;99959.84;;;17.57;39.26
70730;BME280;58315;53.336;55.932;2023-05-07T07:04:07;99971.03;;;17.60;39.26
70730;BME280;58315;53.336;55.932;2023-05-07T07:06:33;99968.69;;;17.57;39.25
70730;BME280;58315;53.336;55.932;2023-05-07T07:09:02;99977.63;;;17.42;39.34
70730;BME280;58315;53.336;55.932;2023-05-07T07:11:29;99988.94;;;17.44;39.36
70730;BME280;58315;53.336;55.932;2023-05-07T07:13:56;99982.25;;;17.56;39.26
70730;BME280;58315;53.336;55.932;2023-05-07T07:16:22;99995.03;;;17.69;39.12
70730;BME280;58315;53.336;55.932;2023-05-07T07:18:50;99999.34;;;17.39;39.48
70730;BME280;58315;53.336;55.932;2023-05-07T07:21:17;100012.56;;;17.24;39.54
70730;BME280;58315;53.336;55.932;2023-05-07T07:23:43;100003.03;;;17.29;39.85
70730;BME280;58315;53.336;55.932;2023-05-07T07:26:09;99998.72;;;17.20;39.94
70730;BME280;58315;53.336;55.932;2023-05-07T07:28:42;99990.06;;;17.10;40.26
70730;BME280;58315;53.336;55.932;2023-05-07T07:31:08;99989.47;;;16.75;40.93
70730;BME280;58315;53.336;55.932;2023-05-07T07:33:34;100000.94;;;16.59;41.24
70730;BME280;58315;53.336;55.932;2023-05-07T07:36:00;99986.28;;;16.72;40.99
70730;BME280;58315;53.336;55.932;2023-05-07T07:38:26;100012.63;;;16.91;40.61
70730;BME280;58315;53.336;55.932;2023-05-07T07:40:52;100009.47;;;16.87;41.06
70730;BME280;58315;53.336;55.932;2023-05-07T07:43:19;100026.50;;;16.78;41.08
70730;BME280;58315;53.336;55.932;2023-05-07T07:45:45;100022.16;;;16.77;41.04
70730;BME280;58315;53.336;55.932;2023-05-07T07:48:12;100028.16;;;16.87;40.60
70730;BME280;58315;53.336;55.932;2023-05-07T07:50:38;100018.63;;;16.60;40.99
70730;BME280;58315;53.336;55.932;2023-05-07T07:53:05;100020.44;;;16.44;41.34
70730;BME280;58315;53.336;55.932;2023-05-07T07:55:32;100021.78;;;16.39;41.57
70730;BME280;58315;53.336;55.932;2023-05-07T07:58:00;100024.28;;;16.41;41.53
70730;BME280;58315;53.336;55.932;2023-05-07T08:00:26;100035.31;;;16.46;41.58
70730;BME280;58315;53.336;55.932;2023-05-07T08:02:55;100043.38;;;16.04;42.29
70730;BME280;58315;53.336;55.932;2023-05-07T08:05:26;100047.31;;;15.83;42.53
70730;BME280;58315;53.336;55.932;2023-05-07T08:07:52;100036.84;;;15.56;43.29
70730;BME280;58315;53.336;55.932;2023-05-07T08:10:24;100044.50;;;15.51;43.81
70730;BME280;58315;53.336;55.932;2023-05-07T08:12:56;100049.72;;;15.34;44.48
70730;BME280;58315;53.336;55.932;2023-05-07T08:15:22;100054.78;;;15.19;45.71
70730;BME280;58315;53.336;55.932;2023-05-07T08:17:49;100060.44;;;14.99;46.88
70730;BME280;58315;53.336;55.932;2023-05-07T08:20:23;100061.78;;;14.77;47.83
70730;BME280;58315;53.336;55.932;2023-05-07T08:22:51;100068.69;;;14.87;47.84
70730;BME280;58315;53.336;55.932;2023-05-07T08:25:17;100074.31;;;14.84;47.54
70730;BME280;58315;53.336;55.932;2023-05-07T08:27:46;100079.50;;;14.68;47.78
70730;BME280;58315;53.336;55.932;2023-05-07T08:30:12;100082.13;;;14.32;48.55
70730;BME280;58315;53.336;55.932;2023-05-07T08:32:39;100086.81;;;14.20;49.91
70730;BME280;58315;53.336;55.932;2023-05-07T08:35:06;100094.38;;;13.97;50.25
70730;BME280;58315;53.336;55.932;2023-05-07T08:37:32;100105.84;;;13.61;51.48
70730;BME280;58315;53.336;55.932;2023-05-07T08:39:58;100103.31;;;13.69;51.56
70730;BME280;58315;53.336;55.932;2023-05-07T08:42:31;100093.38;;;13.98;50.34
70730;BME280;58315;53.336;55.932;2023-05-07T08:44:59;100092.53;;;13.98;49.78
70730;BME280;58315;53.336;55.932;2023-05-07T08:47:36;100095.81;;;14.10;49.64
70730;BME280;58315;53.336;55.932;2023-05-07T08:50:05;100093.97;;;14.20;49.15
70730;BME280;58315;53.336;55.932;2023-05-07T08:52:32;100095.81;;;14.10;49.84
70730;BME280;58315;53.336;55.932;2023-05-07T08:54:59;100103.00;;;14.27;48.98
70730;BME280;58315;53.336;55.932;2023-05-07T08:57:26;100102.19;;;14.27;49.50
70730;BME280;58315;53.336;55.932;2023-05-07T08:59:53;100102.41;;;13.78;50.02
70730;BME280;58315;53.336;55.932;2023-05-07T09:02:19;100113.00;;;13.60;50.83
70730;BME280;58315;53.336;55.932;2023-05-07T09:04:45;100107.72;;;13.78;51.26
70730;BME280;58315;53.336;55.932;2023-05-07T09:07:11;100101.63;;;13.95;50.74
70730;BME280;58315;53.336;55.932;2023-05-07T09:09:41;100099.47;;;14.09;49.49
70730;BME280;58315;53.336;55.932;2023-05-07T09:12:10;100113.00;;;13.88;49.43
70730;BME280;58315;53.336;55.932;2023-05-07T09:14:36;100105.97;;;13.96;49.52
70730;BME280;58315;53.336;55.932;2023-05-07T09:17:03;100117.09;;;14.10;48.51
70730;BME280;58315;53.336;55.932;2023-05-07T09:19:29;100118.41;;;14.23;48.64
70730;BME280;58315;53.336;55.932;2023-05-07T09:22:00;100123.16;;;14.30;48.39
70730;BME280;58315;53.336;55.932;2023-05-07T09:24:27;100126.72;;;14.11;48.74
70730;BME280;58315;53.336;55.932;2023-05-07T09:27:02;100125.34;;;13.79;48.47
70730;BME280;58315;53.336;55.932;2023-05-07T09:29:30;100127.63;;;13.64;49.01
70730;BME280;58315;53.336;55.932;2023-05-07T09:32:06;100133.81;;;13.45;49.20
70730;BME280;58315;53.336;55.932;2023-05-07T09:34:34;100133.25;;;13.61;49.04
70730;BME280;58315;53.336;55.932;2023-05-07T09:37:02;100129.59;;;13.52;49.01
70730;BME280;58315;53.336;55.932;2023-05-07T09:39:49;100133.56;;;13.86;48.21
70730;BME280;58315;53.336;55.932;2023-05-07T09:42:23;100111.03;;;13.90;48.27
70730;BME280;58315;53.336;55.932;2023-05-07T09:44:51;100129.91;;;14.14;48.04
70730;BME280;58315;53.336;55.932;2023-05-07T09:47:23;100132.56;;;14.52;47.39
70730;BME280;58315;53.336;55.932;2023-05-07T09:49:56;100137.72;;;14.71;46.69
70730;BME280;58315;53.336;55.932;2023-05-07T09:52:25;100147.06;;;14.75;46.57
70730;BME280;58315;53.336;55.932;2023-05-07T09:54:57;100156.41;;;14.79;46.31
70730;BME280;58315;53.336;55.932;2023-05-07T09:57:27;100151.38;;;14.76;45.74
70730;BME280;58315;53.336;55.932;2023-05-07T09:59:59;100148.81;;;14.84;44.51
70730;BME280;58315;53.336;55.932;2023-05-07T10:02:35;100150.13;;;15.24;44.21
70730;BME280;58315;53.336;55.932;2023-05-07T10:05:03;100150.16;;;15.50;43.43
70730;BME280;58315;53.336;55.932;2023-05-07T10:07:33;100146.00;;;15.48;43.23
70730;BME280;58315;53.336;55.932;2023-05-07T10:10:06;100149.63;;;15.47;43.93
70730;BME280;58315;53.336;55.932;2023-05-07T10:12:37;100150.59;;;15.63;43.48
70730;BME280;58315;53.336;55.932;2023-05-07T10:15:10;100157.72;;;15.81;42.81
70730;BME280;58315;53.336;55.932;2023-05-07T10:17:40;100161.84;;;15.75;42.99
70730;BME280;58315;53.336;55.932;2023-05-07T10:20:08;100160.84;;;14.88;43.67
70730;BME280;58315;53.336;55.932;2023-05-07T10:22:44;100152.38;;;14.47;44.78
70730;BME280;58315;53.336;55.932;2023-05-07T10:25:24;100146.28;;;14.19;45.63
70730;BME280;58315;53.336;55.932;2023-05-07T10:27:53;100150.31;;;14.23;45.23
70730;BME280;58315;53.336;55.932;2023-05-07T10:33:11;100143.25;;;14.32;44.33
70730;BME280;58315;53.336;55.932;2023-05-07T10:35:45;100142.81;;;14.37;43.89
70730;BME280;58315;53.336;55.932;2023-05-07T10:38:13;100149.53;;;14.59;43.91
70730;BME280;58315;53.336;55.932;2023-05-07T10:40:43;100157.63;;;14.67;42.86
70730;BME280;58315;53.336;55.932;2023-05-07T10:43:09;100150.63;;;14.66;43.10
70730;BME280;58315;53.336;55.932;2023-05-07T10:45:44;100141.25;;;15.15;42.43
70730;BME280;58315;53.336;55.932;2023-05-07T10:48:31;100138.97;;;15.47;41.54
70730;BME280;58315;53.336;55.932;2023-05-07T10:51:23;100140.91;;;15.80;41.24
70730;BME280;58315;53.336;55.932;2023-05-07T10:56:52;100143.91;;;15.59;40.71
70730;BME280;58315;53.336;55.932;2023-05-07T10:59:31;100148.31;;;15.95;39.98
70730;BME280;58315;53.336;55.932;2023-05-07T11:02:03;100149.25;;;15.85;40.33
70730;BME280;58315;53.336;55.932;2023-05-07T11:05:22;100147.13;;;16.39;39.37
70730;BME280;58315;53.336;55.932;2023-05-07T11:08:09;100143.19;;;16.09;39.78
70730;BME280;58315;53.336;55.932;2023-05-07T11:10:54;100152.59;;;16.38;39.39
70730;BME280;58315;53.336;55.932;2023-05-07T11:13:48;100162.69;;;16.10;39.32
70730;BME280;58315;53.336;55.932;2023-05-07T11:16:25;100160.56;;;16.22;39.61
70730;BME280;58315;53.336;55.932;2023-05-07T11:19:06;100164.44;;;16.27;39.04
70730;BME280;58315;53.336;55.932;2023-05-07T11:21:39;100164.38;;;16.19;39.36
70730;BME280;58315;53.336;55.932;2023-05-07T11:24:25;100166.91;;;16.21;39.21
70730;BME280;58315;53.336;55.932;2023-05-07T11:27:01;100163.50;;;16.02;39.55
70730;BME280;58315;53.336;55.932;2023-05-07T11:29:29;100164.59;;;15.91;39.65
70730;BME280;58315;53.336;55.932;2023-05-07T11:32:06;100170.66;;;16.02;39.96
70730;BME280;58315;53.336;55.932;2023-05-07T11:34:42;100178.41;;;16.21;39.63
70730;BME280;58315;53.336;55.932;2023-05-07T11:37:11;100172.75;;;16.24;39.57
70730;BME280;58315;53.336;55.932;2023-05-07T11:39:45;100178.53;;;15.85;40.19
70730;BME280;58315;53.336;55.932;2023-05-07T11:42:35;100187.69;;;16.09;39.92
70730;BME280;58315;53.336;55.932;2023-05-07T11:45:03;100188.22;;;15.86;40.44
70730;BME280;58315;53.336;55.932;2023-05-07T11:47:33;100188.53;;;15.83;40.38
70730;BME280;58315;53.336;55.932;2023-05-07T11:50:07;100196.59;;;15.91;40.28
70730;BME280;58315;53.336;55.932;2023-05-07T11:52:35;100196.28;;;15.95;40.32
70730;BME280;58315;53.336;55.932;2023-05-07T11:55:02;100192.34;;;16.15;39.44
70730;BME280;58315;53.336;55.932;2023-05-07T11:57:33;100200.84;;;16.10;38.94
70730;BME280;58315;53.336;55.932;2023-05-07T12:00:00;100204.19;;;15.86;39.09
70730;BME280;58315;53.336;55.932;2023-05-07T12:02:39;100205.69;;;15.81;39.00
70730;BME280;58315;53.336;55.932;2023-05-07T12:05:06;100212.56;;;15.91;38.57
70730;BME280;58315;53.336;55.932;2023-05-07T12:07:35;100199.38;;;15.90;38.41
70730;BME280;58315;53.336;55.932;2023-05-07T12:10:05;100204.41;;;15.67;38.68
70730;BME280;58315;53.336;55.932;2023-05-07T12:12:38;100196.41;;;15.67;38.64
70730;BME280;58315;53.336;55.932;2023-05-07T12:15:04;100202.75;;;15.66;38.62
70730;BME280;58315;53.336;55.932;2023-05-07T12:17:33;100208.66;;;16.12;38.52
70730;BME280;58315;53.336;55.932;2023-05-07T12:20:03;100214.66;;;16.06;37.69
70730;BME280;58315;53.336;55.932;2023-05-07T12:22:31;100215.44;;;15.98;37.25
70730;BME280;58315;53.336;55.932;2023-05-07T12:24:58;100215.81;;;15.77;36.68
70730;BME280;58315;53.336;55.932;2023-05-07T12:27:25;100219.84;;;15.81;36.39
70730;BME280;58315;53.336;55.932;2023-05-07T12:29:52;100212.34;;;15.85;36.24
70730;BME280;58315;53.336;55.932;2023-05-07T12:32:20;100214.66;;;16.06;36.04
70730;BME280;58315;53.336;55.932;2023-05-07T12:34:50;100211.41;;;15.94;35.95
70730;BME280;58315;53.336;55.932;2023-05-07T12:37:23;100228.63;;;16.08;35.45
70730;BME280;58315;53.336;55.932;2023-05-07T12:40:03;100225.25;;;15.98;35.82
70730;BME280;58315;53.336;55.932;2023-05-07T12:42:36;100219.88;;;15.89;35.86
70730;BME280;58315;53.336;55.932;2023-05-07T12:45:11;100211.91;;;16.24;35.94
70730;BME280;58315;53.336;55.932;2023-05-07T12:47:38;100224.28;;;15.99;36.50
70730;BME280;58315;53.336;55.932;2023-05-07T12:50:07;100215.81;;;15.77;36.43
70730;BME280;58315;53.336;55.932;2023-05-07T12:52:33;100217.16;;;15.81;36.05
70730;BME280;58315;53.336;55.932;2023-05-07T12:55:07;100223.97;;;16.02;35.50
70730;BME280;58315;53.336;55.932;2023-05-07T12:57:41;100228.31;;;15.59;35.42
70730;BME280;58315;53.336;55.932;2023-05-07T13:00:08;100224.72;;;15.50;35.87
70730;BME280;58315;53.336;55.932;2023-05-07T13:02:39;100219.13;;;15.79;35.80